This is the latest recevied weather packets stored in our database for station/object EA1GHG-11. If no packets are shown the sender has not sent any weather packets the latest 10 day(s).
| Time | Temp. | Humidity | Pressure | Rain* | Wind** | Luminosity | Snow |
|---|---|---|---|---|---|---|---|
| 1777930917 | 9.44° C | 100% | 1020.6 hPa | - | - | - | - |
| 1777929417 | 8.89° C | 100% | 1020.6 hPa | - | - | - | - |
| 1777927917 | 9.44° C | 100% | 1020.4 hPa | - | - | - | - |
| 1777926417 | 9.44° C | 100% | 1020.2 hPa | - | - | - | - |
| 1777924916 | 10° C | 100% | 1020 hPa | - | - | - | - |
| 1777923416 | 10° C | 100% | 1019.8 hPa | - | - | - | - |
| 1777921916 | 10° C | 100% | 1019.4 hPa | - | - | - | - |
| 1777920416 | 10° C | 100% | 1019.4 hPa | - | - | - | - |
| 1777918915 | 10.56° C | 100% | 1019.2 hPa | - | - | - | - |
| 1777918317 | 10.56° C | 100% | 1019.2 hPa | - | - | - | - |
| 1777916817 | 10.56° C | 100% | 1019.3 hPa | - | - | - | - |
| 1777915317 | 11.11° C | 100% | 1019.1 hPa | - | - | - | - |
| 1777913817 | 11.67° C | 100% | 1019 hPa | - | - | - | - |
| 1777912317 | 11.67° C | 100% | 1018.9 hPa | - | - | - | - |
| 1777910817 | 16.67° C | 100% | 1018.4 hPa | - | - | - | - |
| 1777909317 | 16.67° C | 100% | 1018.4 hPa | - | - | - | - |
| 1777907817 | 15° C | 100% | 1018.5 hPa | - | - | - | - |
| 1777906317 | 15.56° C | 99% | 1018.4 hPa | - | - | - | - |
| 1777904817 | 15° C | 100% | 1018.5 hPa | - | - | - | - |
| 1777903317 | 15.56° C | 100% | 1018.6 hPa | - | - | - | - |
| 1777901816 | 15.56° C | 100% | 1018.7 hPa | - | - | - | - |
| 1777900316 | 17.78° C | 100% | 1018.6 hPa | - | - | - | - |
| 1777898816 | 16.67° C | 100% | 1018.8 hPa | - | - | - | - |
| 1777897315 | 16.67° C | 100% | 1018.8 hPa | - | - | - | - |
| 1777896717 | 16.67° C | 100% | 1018.9 hPa | - | - | - | - |
* Rain since midnight (hover to see other rain measurements)
** Current wind speed in m/s (hover to see current wind gust speed)